createdAt,value
2018-12-04T00:26:16.601Z,94
2018-12-04T00:31:45.117Z,94
2018-12-04T00:37:13.780Z,94
2018-12-04T00:42:42.046Z,94
2018-12-04T00:48:09.973Z,94
2018-12-04T00:53:37.310Z,94
2018-12-04T00:59:05.892Z,94
2018-12-04T01:04:34.672Z,94
2018-12-04T01:10:03.977Z,94
2018-12-04T01:15:30.882Z,94
2018-12-04T01:20:58.246Z,94
2018-12-04T01:26:26.618Z,94
2018-12-04T01:31:55.222Z,94
2018-12-04T01:37:23.866Z,93
2018-12-04T01:42:51.531Z,93
2018-12-04T01:48:18.665Z,93
2018-12-04T01:53:47.214Z,93
2018-12-04T01:59:14.644Z,94
2018-12-04T02:04:42.780Z,93
2018-12-04T02:10:11.920Z,93
2018-12-04T02:15:38.175Z,93
2018-12-04T02:21:05.709Z,93
2018-12-04T02:26:34.202Z,93
2018-12-04T02:32:32.658Z,93
2018-12-04T02:37:31.750Z,93
2018-12-04T02:42:57.638Z,93
2018-12-04T02:48:26.388Z,93
2018-12-04T02:53:55.807Z,93
2018-12-04T02:59:24.570Z,93
2018-12-04T03:04:52.593Z,93
2018-12-04T03:10:20.492Z,93
2018-12-04T03:15:47.382Z,93
2018-12-04T03:21:16.326Z,92
2018-12-04T03:26:42.414Z,92
2018-12-04T03:32:12.141Z,92
2018-12-04T03:37:37.415Z,92
2018-12-04T03:43:05.601Z,92
2018-12-04T03:48:33.583Z,92
2018-12-04T03:54:03.855Z,92
2018-12-04T03:59:33.803Z,91
2018-12-04T04:04:57.519Z,91
2018-12-04T04:10:30.146Z,91
2018-12-04T04:15:55.447Z,91
2018-12-04T04:21:22.212Z,90
2018-12-04T04:26:48.479Z,90
2018-12-04T04:32:17.547Z,90
2018-12-04T04:37:44.804Z,90
2018-12-04T04:43:12.668Z,90
2018-12-04T04:48:42.048Z,90
2018-12-04T04:54:09.519Z,90
2018-12-04T04:59:37.020Z,90
2018-12-04T05:05:04.692Z,90
2018-12-04T05:10:33.794Z,90
2018-12-04T05:16:01.172Z,90
2018-12-04T05:21:28.779Z,90
2018-12-04T05:26:58.882Z,90
2018-12-04T05:32:26.702Z,90
2018-12-04T05:37:52.967Z,89
2018-12-04T05:43:21.111Z,89
2018-12-04T05:48:48.501Z,89
2018-12-04T05:54:15.470Z,89
2018-12-04T05:59:43.612Z,89
2018-12-04T06:05:12.930Z,89
2018-12-04T06:10:38.389Z,89
2018-12-04T06:16:05.791Z,89
2018-12-04T06:21:33.176Z,89
2018-12-04T06:27:01.587Z,89
2018-12-04T06:32:37.713Z,89
2018-12-04T06:37:57.429Z,89
2018-12-04T06:43:26.258Z,89
2018-12-04T06:48:53.556Z,89
2018-12-04T06:54:23.138Z,89
2018-12-04T06:59:50.617Z,89
2018-12-04T07:05:17.305Z,89
2018-12-04T07:10:46.997Z,89
2018-12-04T07:16:14.400Z,89
2018-12-04T07:21:41.423Z,89
2018-12-04T07:27:09.897Z,89
2018-12-04T07:32:38.993Z,89
2018-12-04T07:38:06.638Z,89
2018-12-04T07:43:33.960Z,88
2018-12-04T07:49:03.739Z,88
2018-12-04T07:54:31.145Z,88
2018-12-04T07:59:58.618Z,88
2018-12-04T08:05:40.466Z,88
2018-12-04T08:10:53.822Z,88
2018-12-04T08:16:24.102Z,88
2018-12-04T08:21:50.028Z,87
2018-12-04T08:27:16.590Z,87
2018-12-04T08:32:43.651Z,87
2018-12-04T08:38:11.551Z,87
2018-12-04T08:43:41.650Z,87
2018-12-04T08:49:07.292Z,87
2018-12-04T08:54:45.258Z,87
2018-12-04T09:00:04.074Z,87
2018-12-04T09:05:33.124Z,86
2018-12-04T09:10:58.936Z,86
2018-12-04T09:16:26.556Z,87
2018-12-04T09:21:54.636Z,87
2018-12-04T09:27:22.712Z,87
2018-12-04T09:38:18.125Z,87
2018-12-04T09:43:45.146Z,87
2018-12-04T09:49:12.818Z,87
2018-12-04T09:54:39.593Z,87
2018-12-04T10:00:08.219Z,87
2018-12-04T10:05:35.428Z,87
2018-12-04T10:11:02.644Z,86
2018-12-04T10:16:31.176Z,86
2018-12-04T10:21:59.457Z,86
2018-12-04T10:27:25.966Z,86
2018-12-04T10:32:55.087Z,86
2018-12-04T10:38:21.725Z,86
2018-12-04T10:43:50.022Z,86
2018-12-04T10:49:19.003Z,85
2018-12-04T10:54:45.864Z,85
2018-12-04T11:00:14.683Z,85
2018-12-04T11:05:44.491Z,85
2018-12-04T11:11:11.439Z,84
2018-12-04T11:16:38.573Z,84
2018-12-04T11:22:07.042Z,84
2018-12-04T11:27:36.305Z,83
2018-12-04T11:33:03.545Z,83
2018-12-04T11:38:30.609Z,83
2018-12-04T11:43:59.075Z,84
2018-12-04T11:49:26.567Z,84
2018-12-04T11:54:53.550Z,84
2018-12-04T12:00:21.018Z,84
2018-12-04T12:05:48.331Z,83
2018-12-04T12:11:15.770Z,83
2018-12-04T12:16:43.404Z,83
2018-12-04T12:22:11.557Z,83
2018-12-04T12:27:39.230Z,83
2018-12-04T12:33:08.294Z,83
2018-12-04T12:38:34.862Z,83
2018-12-04T12:44:03.318Z,82
2018-12-04T12:55:01.205Z,82
2018-12-04T13:05:54.102Z,82
2018-12-04T13:11:22.558Z,82
2018-12-04T13:16:49.998Z,81
2018-12-04T13:22:17.463Z,81
2018-12-04T13:27:44.913Z,81
2018-12-04T13:33:12.378Z,81
2018-12-04T13:38:39.852Z,81
2018-12-04T13:44:07.274Z,81
2018-12-04T13:49:35.809Z,81
2018-12-04T13:55:03.136Z,81
2018-12-04T14:00:31.362Z,81
2018-12-04T14:05:59.261Z,81
2018-12-04T14:11:26.789Z,80
2018-12-04T14:16:54.879Z,80
2018-12-04T14:22:23.284Z,80
2018-12-04T14:27:51.743Z,80
2018-12-04T14:33:21.031Z,80
2018-12-04T14:38:47.583Z,80
2018-12-04T14:44:16.244Z,80
2018-12-04T14:49:43.415Z,80
2018-12-04T14:55:10.880Z,81
2018-12-04T15:00:38.232Z,81
2018-12-04T15:06:05.713Z,81
2018-12-04T15:11:33.069Z,81
2018-12-04T15:17:00.534Z,81
2018-12-04T15:22:28.825Z,81
2018-12-04T15:27:57.186Z,81
2018-12-04T15:33:24.535Z,81
2018-12-04T15:38:52.178Z,81
2018-12-04T15:44:20.368Z,81
2018-12-04T15:49:48.673Z,81
2018-12-04T15:55:17.169Z,81
2018-12-04T16:00:44.362Z,81
2018-12-04T16:06:12.776Z,81
2018-12-04T16:11:40.839Z,80
2018-12-04T16:17:14.856Z,80
2018-12-04T16:22:37.125Z,80
2018-12-04T16:28:05.262Z,80
2018-12-04T16:33:33.078Z,81
2018-12-04T16:39:00.749Z,81
2018-12-04T16:44:27.258Z,81
2018-12-04T16:49:55.690Z,81
2018-12-04T16:55:23.157Z,81
2018-12-04T17:00:50.379Z,81
2018-12-04T17:06:17.666Z,81
2018-12-04T17:11:46.044Z,81
2018-12-04T17:17:14.483Z,81
2018-12-04T17:22:41.788Z,81
2018-12-04T17:28:10.307Z,81
2018-12-04T17:33:38.674Z,81
2018-12-04T17:39:06.742Z,81
2018-12-04T17:44:40.137Z,81
2018-12-04T17:50:03.356Z,81
2018-12-04T17:55:30.673Z,81
2018-12-04T18:00:58.023Z,81
2018-12-04T18:06:25.340Z,81
2018-12-04T18:11:53.593Z,81
2018-12-04T18:17:21.739Z,81
2018-12-04T18:22:47.292Z,81
2018-12-04T18:28:15.136Z,81
2018-12-04T18:33:43.182Z,81
2018-12-04T18:39:11.285Z,81
2018-12-04T18:44:39.575Z,81
2018-12-04T18:50:06.889Z,81
2018-12-04T18:55:35.189Z,81
2018-12-04T19:01:06.576Z,81
2018-12-04T19:06:31.849Z,81
2018-12-04T19:11:59.187Z,82
2018-12-04T19:17:27.362Z,82
2018-12-04T19:22:56.001Z,82
2018-12-04T19:28:23.203Z,82
2018-12-04T19:33:50.370Z,82
2018-12-04T19:39:18.563Z,82
2018-12-04T19:44:46.077Z,82
2018-12-04T19:50:14.324Z,82
2018-12-04T19:55:41.369Z,82
2018-12-04T20:01:08.633Z,82
2018-12-04T20:06:36.262Z,82
2018-12-04T20:12:04.164Z,82
2018-12-04T20:17:32.400Z,82
2018-12-04T20:23:00.586Z,82
2018-12-04T20:28:27.905Z,82
2018-12-04T20:33:55.333Z,82
2018-12-04T20:39:22.357Z,82
2018-12-04T20:44:49.866Z,82
2018-12-04T20:50:16.785Z,82
2018-12-04T20:55:44.045Z,82
2018-12-04T21:01:11.262Z,82
2018-12-04T21:06:38.411Z,82
2018-12-04T21:12:05.651Z,82
2018-12-04T21:17:33.838Z,82
2018-12-04T21:23:01.046Z,82
2018-12-04T21:28:28.248Z,82
2018-12-04T21:33:56.506Z,82
2018-12-04T21:39:24.948Z,82
2018-12-04T21:44:51.928Z,82
2018-12-04T21:50:19.115Z,83
2018-12-04T21:55:46.445Z,83
2018-12-04T22:01:14.459Z,82
2018-12-04T22:06:41.967Z,83
2018-12-04T22:12:09.672Z,82
2018-12-04T22:17:36.319Z,83
2018-12-04T22:23:03.214Z,83
2018-12-04T22:28:31.341Z,83
2018-12-04T22:33:58.520Z,83
2018-12-04T22:39:26.702Z,83
2018-12-04T22:44:54.849Z,83
2018-12-04T22:50:22.043Z,83
2018-12-04T22:55:49.195Z,83
2018-12-04T23:01:16.324Z,83
2018-12-04T23:06:44.473Z,83
2018-12-04T23:12:11.615Z,83
2018-12-04T23:17:38.765Z,83
2018-12-04T23:23:05.933Z,83
2018-12-04T23:28:34.828Z,83
2018-12-04T23:34:01.235Z,83
2018-12-04T23:39:28.394Z,83
2018-12-04T23:44:56.580Z,83
2018-12-04T23:50:23.951Z,83
2018-12-04T23:55:50.795Z,83
